In Rescue
 
Open Full Screen Window  High Contrast Mode
Wind Gusting 00 knots
06
October 25, 2021 2:31 PM CDT
Weather Information
Wind Direction
  100 °
Wind Speed
  06 kt (7 mph)
Wind Gust
  00 kt (0 mph)
Altimeter
30.13 in
Visibility
10 SM
Temperature
11° C
52° F
Dewpoint
00° C
32° F
Humidity
47%
1hr Rain Fall
00.03 in.
24hr Rain Fall
00.72 in.
Sky Condition
Clear
VFR

METAR KHCD 251931Z AUTO 10006KT 10SM CLR 11/00 A3013 RMK AO2 T01110004 P0003

FAA Disclaimer: The data displayed is for advisory purposes only and is not to be used for flight planning or operations.